Paynton, Canada
Current Conditions -  °F | °C
As of 10:00 PM on Tuesday 27 Jan 2015 (Local Time) from CYQW Reporting Station
Overcast Overcast  
Wind Chill: 19°   Ceiling: 11000
Heat Index: 30°   Visibility: 9mi
Dew Point: 28°   Wind: 15mph
Humidity: 93%   Direction: 110°ESE
Pressure: 29.86"   Gusts: NA
Location:  53.02°N, 108.95°W
Report Text: CYQW 280400Z AUTO 11013KT 9SM BKN110 OVC140 M01/M02 A2986 RMK SLP140
Loading
Personal Weather Stations






























Interactive Weather Map New forecast layout! Learn more

10-Day Weather Forecast

Advertisements
Track Severe Weather on mobile